sensor_id;sensor_type;location;lat;lon;timestamp;pressure;altitude;pressure_sealevel;temperature;humidity
58534;BME280;44109;52.398;7.024;2023-04-15T00:01:35;100716.09;;;6.63;100.00
58534;BME280;44109;52.398;7.024;2023-04-15T00:04:03;100710.72;;;6.67;100.00
58534;BME280;44109;52.398;7.024;2023-04-15T00:06:31;100716.34;;;6.70;100.00
58534;BME280;44109;52.398;7.024;2023-04-15T00:08:58;100717.72;;;6.64;100.00
58534;BME280;44109;52.398;7.024;2023-04-15T00:11:26;100718.66;;;6.56;100.00
58534;BME280;44109;52.398;7.024;2023-04-15T00:13:55;100720.47;;;6.52;100.00
58534;BME280;44109;52.398;7.024;2023-04-15T00:16:23;100716.69;;;6.56;100.00
58534;BME280;44109;52.398;7.024;2023-04-15T00:18:52;100717.84;;;6.55;100.00
58534;BME280;44109;52.398;7.024;2023-04-15T00:21:20;100723.69;;;6.54;100.00
58534;BME280;44109;52.398;7.024;2023-04-15T00:23:48;100723.00;;;6.57;100.00
58534;BME280;44109;52.398;7.024;2023-04-15T00:26:18;100721.16;;;6.61;100.00
58534;BME280;44109;52.398;7.024;2023-04-15T00:28:46;100717.03;;;6.67;100.00
58534;BME280;44109;52.398;7.024;2023-04-15T00:31:14;100720.13;;;6.66;100.00
58534;BME280;44109;52.398;7.024;2023-04-15T00:33:41;100709.22;;;6.57;100.00
58534;BME280;44109;52.398;7.024;2023-04-15T00:36:11;100722.31;;;6.60;100.00
58534;BME280;44109;52.398;7.024;2023-04-15T00:38:38;100706.94;;;6.47;100.00
58534;BME280;44109;52.398;7.024;2023-04-15T00:41:06;100729.19;;;6.54;100.00
58534;BME280;44109;52.398;7.024;2023-04-15T00:43:35;100719.31;;;6.53;100.00
58534;BME280;44109;52.398;7.024;2023-04-15T00:46:03;100724.38;;;6.51;100.00
58534;BME280;44109;52.398;7.024;2023-04-15T00:48:32;100729.34;;;6.45;100.00
58534;BME280;44109;52.398;7.024;2023-04-15T00:51:00;100726.91;;;6.44;100.00
58534;BME280;44109;52.398;7.024;2023-04-15T00:53:29;100732.41;;;6.44;100.00
58534;BME280;44109;52.398;7.024;2023-04-15T00:55:56;100726.56;;;6.45;100.00
58534;BME280;44109;52.398;7.024;2023-04-15T00:58:25;100723.13;;;6.48;100.00
58534;BME280;44109;52.398;7.024;2023-04-15T01:00:54;100724.16;;;6.44;100.00
58534;BME280;44109;52.398;7.024;2023-04-15T01:03:23;100720.72;;;6.47;100.00
58534;BME280;44109;52.398;7.024;2023-04-15T01:05:50;100720.25;;;6.45;100.00
58534;BME280;44109;52.398;7.024;2023-04-15T01:08:25;100721.88;;;6.46;100.00
58534;BME280;44109;52.398;7.024;2023-04-15T01:10:55;100726.66;;;6.49;100.00
58534;BME280;44109;52.398;7.024;2023-04-15T01:13:24;100719.13;;;6.46;100.00
58534;BME280;44109;52.398;7.024;2023-04-15T01:15:53;100718.41;;;6.49;100.00
58534;BME280;44109;52.398;7.024;2023-04-15T01:18:23;100726.44;;;6.54;100.00
58534;BME280;44109;52.398;7.024;2023-04-15T01:20:50;100719.22;;;6.49;100.00
58534;BME280;44109;52.398;7.024;2023-04-15T01:23:19;100720.03;;;6.50;100.00
58534;BME280;44109;52.398;7.024;2023-04-15T01:25:48;100719.22;;;6.49;100.00
58534;BME280;44109;52.398;7.024;2023-04-15T01:28:16;100715.66;;;6.49;100.00
58534;BME280;44109;52.398;7.024;2023-04-15T01:30:44;100729.34;;;6.45;100.00
58534;BME280;44109;52.398;7.024;2023-04-15T01:33:11;100711.16;;;6.44;100.00
58534;BME280;44109;52.398;7.024;2023-04-15T01:35:39;100713.13;;;6.44;100.00
58534;BME280;44109;52.398;7.024;2023-04-15T01:38:10;100722.53;;;6.43;100.00
58534;BME280;44109;52.398;7.024;2023-04-15T01:40:38;100706.22;;;6.25;100.00
58534;BME280;44109;52.398;7.024;2023-04-15T01:43:08;100731.16;;;6.41;100.00
58534;BME280;44109;52.398;7.024;2023-04-15T01:45:35;100724.38;;;6.39;100.00
58534;BME280;44109;52.398;7.024;2023-04-15T01:48:03;100730.34;;;6.28;100.00
58534;BME280;44109;52.398;7.024;2023-04-15T01:50:30;100733.31;;;6.23;100.00
58534;BME280;44109;52.398;7.024;2023-04-15T01:52:58;100733.88;;;6.17;100.00
58534;BME280;44109;52.398;7.024;2023-04-15T01:55:26;100725.00;;;5.99;100.00
58534;BME280;44109;52.398;7.024;2023-04-15T01:57:53;100725.78;;;5.99;100.00
58534;BME280;44109;52.398;7.024;2023-04-15T02:00:23;100733.47;;;5.94;100.00
58534;BME280;44109;52.398;7.024;2023-04-15T02:02:50;100728.50;;;5.87;100.00
58534;BME280;44109;52.398;7.024;2023-04-15T02:05:18;100731.59;;;5.85;100.00
58534;BME280;44109;52.398;7.024;2023-04-15T02:07:46;100727.44;;;5.79;100.00
58534;BME280;44109;52.398;7.024;2023-04-15T02:10:14;100731.78;;;5.68;100.00
58534;BME280;44109;52.398;7.024;2023-04-15T02:12:42;100741.56;;;5.57;100.00
58534;BME280;44109;52.398;7.024;2023-04-15T02:15:10;100735.06;;;5.62;100.00
58534;BME280;44109;52.398;7.024;2023-04-15T02:17:39;100740.91;;;5.60;100.00
58534;BME280;44109;52.398;7.024;2023-04-15T02:20:11;100730.56;;;5.57;100.00
58534;BME280;44109;52.398;7.024;2023-04-15T02:22:38;100734.47;;;5.56;100.00
58534;BME280;44109;52.398;7.024;2023-04-15T02:25:07;100739.69;;;5.49;100.00
58534;BME280;44109;52.398;7.024;2023-04-15T02:27:35;100737.75;;;5.49;100.00
58534;BME280;44109;52.398;7.024;2023-04-15T02:30:04;100740.19;;;5.51;100.00
58534;BME280;44109;52.398;7.024;2023-04-15T02:32:33;100741.41;;;5.41;100.00
58534;BME280;44109;52.398;7.024;2023-04-15T02:35:05;100742.41;;;5.37;100.00
58534;BME280;44109;52.398;7.024;2023-04-15T02:37:35;100757.19;;;5.32;100.00
58534;BME280;44109;52.398;7.024;2023-04-15T02:40:09;100748.78;;;5.28;100.00
58534;BME280;44109;52.398;7.024;2023-04-15T02:42:38;100727.56;;;5.08;100.00
58534;BME280;44109;52.398;7.024;2023-04-15T02:45:06;100763.88;;;5.22;100.00
58534;BME280;44109;52.398;7.024;2023-04-15T02:47:34;100764.53;;;5.19;100.00
58534;BME280;44109;52.398;7.024;2023-04-15T02:50:04;100763.59;;;5.15;100.00
58534;BME280;44109;52.398;7.024;2023-04-15T02:52:38;100772.31;;;5.17;100.00
58534;BME280;44109;52.398;7.024;2023-04-15T02:55:07;100776.84;;;5.13;100.00
58534;BME280;44109;52.398;7.024;2023-04-15T02:57:35;100774.34;;;4.99;100.00
58534;BME280;44109;52.398;7.024;2023-04-15T03:00:05;100781.94;;;5.02;100.00
58534;BME280;44109;52.398;7.024;2023-04-15T03:02:35;100778.34;;;5.11;100.00
58534;BME280;44109;52.398;7.024;2023-04-15T03:05:06;100777.81;;;5.17;100.00
58534;BME280;44109;52.398;7.024;2023-04-15T03:07:37;100779.94;;;5.12;100.00
58534;BME280;44109;52.398;7.024;2023-04-15T03:10:06;100784.00;;;5.14;100.00
58534;BME280;44109;52.398;7.024;2023-04-15T03:12:35;100781.91;;;5.11;100.00
58534;BME280;44109;52.398;7.024;2023-04-15T03:15:03;100780.28;;;5.10;100.00
58534;BME280;44109;52.398;7.024;2023-04-15T03:17:31;100780.16;;;5.06;100.00
58534;BME280;44109;52.398;7.024;2023-04-15T03:20:00;100782.09;;;5.06;100.00
58534;BME280;44109;52.398;7.024;2023-04-15T03:22:30;100786.34;;;4.95;100.00
58534;BME280;44109;52.398;7.024;2023-04-15T03:24:57;100795.28;;;4.92;100.00
58534;BME280;44109;52.398;7.024;2023-04-15T03:27:25;100795.59;;;4.90;100.00
58534;BME280;44109;52.398;7.024;2023-04-15T03:29:53;100797.53;;;4.90;100.00
58534;BME280;44109;52.398;7.024;2023-04-15T03:32:21;100789.19;;;4.86;100.00
58534;BME280;44109;52.398;7.024;2023-04-15T03:34:49;100774.38;;;4.70;100.00
58534;BME280;44109;52.398;7.024;2023-04-15T03:37:17;100801.31;;;4.76;100.00
58534;BME280;44109;52.398;7.024;2023-04-15T03:39:46;100800.56;;;4.67;100.00
58534;BME280;44109;52.398;7.024;2023-04-15T03:42:13;100801.13;;;4.52;100.00
58534;BME280;44109;52.398;7.024;2023-04-15T03:44:41;100808.22;;;4.53;100.00
58534;BME280;44109;52.398;7.024;2023-04-15T03:47:09;100808.88;;;4.50;100.00
58534;BME280;44109;52.398;7.024;2023-04-15T03:49:37;100806.00;;;4.46;100.00
58534;BME280;44109;52.398;7.024;2023-04-15T03:52:04;100808.41;;;4.39;100.00
58534;BME280;44109;52.398;7.024;2023-04-15T03:54:32;100810.53;;;4.33;100.00
58534;BME280;44109;52.398;7.024;2023-04-15T03:57:01;100811.88;;;4.27;100.00
58534;BME280;44109;52.398;7.024;2023-04-15T03:59:29;100818.66;;;4.21;100.00
58534;BME280;44109;52.398;7.024;2023-04-15T04:01:56;100814.13;;;4.17;100.00
58534;BME280;44109;52.398;7.024;2023-04-15T04:04:24;100812.06;;;4.05;100.00
58534;BME280;44109;52.398;7.024;2023-04-15T04:06:51;100804.94;;;4.04;100.00
58534;BME280;44109;52.398;7.024;2023-04-15T04:09:19;100818.53;;;4.00;100.00
58534;BME280;44109;52.398;7.024;2023-04-15T04:11:46;100812.56;;;3.90;100.00
58534;BME280;44109;52.398;7.024;2023-04-15T04:14:15;100820.50;;;3.83;100.00
58534;BME280;44109;52.398;7.024;2023-04-15T04:16:43;100822.91;;;3.75;100.00
58534;BME280;44109;52.398;7.024;2023-04-15T04:19:11;100815.31;;;3.72;100.00
58534;BME280;44109;52.398;7.024;2023-04-15T04:21:39;100823.69;;;3.76;100.00
58534;BME280;44109;52.398;7.024;2023-04-15T04:24:07;100781.13;;;3.44;100.00
58534;BME280;44109;52.398;7.024;2023-04-15T04:26:34;100823.22;;;3.65;100.00
58534;BME280;44109;52.398;7.024;2023-04-15T04:29:02;100830.50;;;3.78;100.00
58534;BME280;44109;52.398;7.024;2023-04-15T04:31:31;100830.50;;;3.78;100.00
58534;BME280;44109;52.398;7.024;2023-04-15T04:33:59;100836.63;;;3.75;100.00
58534;BME280;44109;52.398;7.024;2023-04-15T04:36:26;100835.19;;;3.69;100.00
58534;BME280;44109;52.398;7.024;2023-04-15T04:38:54;100833.72;;;3.72;100.00
58534;BME280;44109;52.398;7.024;2023-04-15T04:41:22;100770.31;;;3.39;100.00
58534;BME280;44109;52.398;7.024;2023-04-15T04:43:49;100836.16;;;3.82;100.00
58534;BME280;44109;52.398;7.024;2023-04-15T04:46:17;100827.59;;;3.84;100.00
58534;BME280;44109;52.398;7.024;2023-04-15T04:48:46;100831.63;;;3.77;100.00
58534;BME280;44109;52.398;7.024;2023-04-15T04:51:13;100824.50;;;3.76;100.00
58534;BME280;44109;52.398;7.024;2023-04-15T04:53:41;100835.00;;;3.83;100.00
58534;BME280;44109;52.398;7.024;2023-04-15T04:56:09;100833.22;;;3.96;100.00
58534;BME280;44109;52.398;7.024;2023-04-15T04:58:36;100841.13;;;3.97;100.00
58534;BME280;44109;52.398;7.024;2023-04-15T05:01:04;100836.63;;;3.93;100.00
58534;BME280;44109;52.398;7.024;2023-04-15T05:03:32;100845.34;;;3.86;100.00
58534;BME280;44109;52.398;7.024;2023-04-15T05:06:01;100846.63;;;3.97;100.00
58534;BME280;44109;52.398;7.024;2023-04-15T05:08:31;100852.44;;;4.04;100.00
58534;BME280;44109;52.398;7.024;2023-04-15T05:10:58;100855.50;;;4.03;100.00
58534;BME280;44109;52.398;7.024;2023-04-15T05:13:26;100865.34;;;4.04;100.00
58534;BME280;44109;52.398;7.024;2023-04-15T05:15:55;100871.63;;;4.13;100.00
58534;BME280;44109;52.398;7.024;2023-04-15T05:18:22;100875.66;;;4.16;100.00
58534;BME280;44109;52.398;7.024;2023-04-15T05:20:50;100882.13;;;4.28;100.00
58534;BME280;44109;52.398;7.024;2023-04-15T05:23:19;100882.75;;;4.34;100.00
58534;BME280;44109;52.398;7.024;2023-04-15T05:25:47;100876.13;;;4.26;100.00
58534;BME280;44109;52.398;7.024;2023-04-15T05:28:14;100882.56;;;4.39;100.00
58534;BME280;44109;52.398;7.024;2023-04-15T05:30:42;100883.19;;;4.45;100.00
58534;BME280;44109;52.398;7.024;2023-04-15T05:33:10;100854.00;;;4.31;100.00
58534;BME280;44109;52.398;7.024;2023-04-15T05:35:37;100889.81;;;4.61;100.00
58534;BME280;44109;52.398;7.024;2023-04-15T05:38:05;100897.53;;;4.68;100.00
58534;BME280;44109;52.398;7.024;2023-04-15T05:40:34;100914.00;;;4.68;100.00
58534;BME280;44109;52.398;7.024;2023-04-15T05:43:02;100912.06;;;4.77;100.00
58534;BME280;44109;52.398;7.024;2023-04-15T05:45:30;100905.41;;;4.87;100.00
58534;BME280;44109;52.398;7.024;2023-04-15T05:47:58;100918.78;;;4.97;100.00
58534;BME280;44109;52.398;7.024;2023-04-15T05:50:25;100895.19;;;4.96;100.00
58534;BME280;44109;52.398;7.024;2023-04-15T05:52:53;100921.47;;;5.14;100.00
58534;BME280;44109;52.398;7.024;2023-04-15T05:55:21;100921.53;;;5.35;100.00
58534;BME280;44109;52.398;7.024;2023-04-15T05:57:50;100927.16;;;5.39;100.00
58534;BME280;44109;52.398;7.024;2023-04-15T06:00:18;100924.31;;;5.56;100.00
58534;BME280;44109;52.398;7.024;2023-04-15T06:02:46;100928.66;;;5.87;100.00
58534;BME280;44109;52.398;7.024;2023-04-15T06:05:13;100920.84;;;5.68;100.00
58534;BME280;44109;52.398;7.024;2023-04-15T06:07:41;100925.78;;;6.04;100.00
58534;BME280;44109;52.398;7.024;2023-04-15T06:10:09;100928.09;;;6.02;100.00
58534;BME280;44109;52.398;7.024;2023-04-15T06:12:37;100927.47;;;6.17;100.00
58534;BME280;44109;52.398;7.024;2023-04-15T06:15:07;100939.19;;;6.14;100.00
58534;BME280;44109;52.398;7.024;2023-04-15T06:17:36;100934.34;;;6.11;100.00
58534;BME280;44109;52.398;7.024;2023-04-15T06:20:04;100945.66;;;6.30;100.00
58534;BME280;44109;52.398;7.024;2023-04-15T06:22:33;100943.63;;;6.40;100.00
58534;BME280;44109;52.398;7.024;2023-04-15T06:25:04;100946.72;;;6.59;100.00
58534;BME280;44109;52.398;7.024;2023-04-15T06:27:33;100946.25;;;6.57;100.00
58534;BME280;44109;52.398;7.024;2023-04-15T06:30:01;100952.56;;;6.57;100.00
58534;BME280;44109;52.398;7.024;2023-04-15T06:32:31;100956.81;;;6.34;100.00
58534;BME280;44109;52.398;7.024;2023-04-15T06:34:58;100947.75;;;6.67;100.00
58534;BME280;44109;52.398;7.024;2023-04-15T06:37:26;100953.84;;;6.60;100.00
58534;BME280;44109;52.398;7.024;2023-04-15T06:40:08;100961.09;;;6.65;100.00
58534;BME280;44109;52.398;7.024;2023-04-15T06:42:36;100962.41;;;6.79;100.00
58534;BME280;44109;52.398;7.024;2023-04-15T06:45:05;100962.94;;;7.06;100.00
58534;BME280;44109;52.398;7.024;2023-04-15T06:47:35;100958.56;;;7.05;100.00
58534;BME280;44109;52.398;7.024;2023-04-15T06:50:03;100954.78;;;7.09;100.00
58534;BME280;44109;52.398;7.024;2023-04-15T06:52:31;100968.00;;;7.28;100.00
58534;BME280;44109;52.398;7.024;2023-04-15T06:54:59;100964.09;;;7.29;100.00
58534;BME280;44109;52.398;7.024;2023-04-15T06:57:27;100956.50;;;7.38;100.00
58534;BME280;44109;52.398;7.024;2023-04-15T06:59:55;100968.69;;;7.25;100.00
58534;BME280;44109;52.398;7.024;2023-04-15T07:02:23;100972.41;;;7.42;100.00
58534;BME280;44109;52.398;7.024;2023-04-15T07:04:52;100974.69;;;7.40;100.00
58534;BME280;44109;52.398;7.024;2023-04-15T07:07:20;100972.03;;;7.19;100.00
58534;BME280;44109;52.398;7.024;2023-04-15T07:09:48;100974.47;;;7.32;100.00
58534;BME280;44109;52.398;7.024;2023-04-15T07:12:15;100984.94;;;6.94;100.00
58534;BME280;44109;52.398;7.024;2023-04-15T07:14:43;100970.91;;;7.32;100.00
58534;BME280;44109;52.398;7.024;2023-04-15T07:17:11;100976.41;;;7.20;100.00
58534;BME280;44109;52.398;7.024;2023-04-15T07:19:38;100976.53;;;7.23;100.00
58534;BME280;44109;52.398;7.024;2023-04-15T07:22:07;100983.91;;;7.31;100.00
58534;BME280;44109;52.398;7.024;2023-04-15T07:24:35;100982.97;;;7.76;100.00
58534;BME280;44109;52.398;7.024;2023-04-15T07:27:02;100973.53;;;7.65;100.00
58534;BME280;44109;52.398;7.024;2023-04-15T07:29:30;100983.19;;;7.83;100.00
58534;BME280;44109;52.398;7.024;2023-04-15T07:31:58;100977.19;;;7.94;100.00
58534;BME280;44109;52.398;7.024;2023-04-15T07:34:26;100988.28;;;8.22;100.00
58534;BME280;44109;52.398;7.024;2023-04-15T07:36:54;100987.97;;;8.23;100.00
58534;BME280;44109;52.398;7.024;2023-04-15T07:39:23;100985.41;;;8.30;100.00
58534;BME280;44109;52.398;7.024;2023-04-15T07:41:51;100982.34;;;8.07;100.00
58534;BME280;44109;52.398;7.024;2023-04-15T07:44:19;100980.13;;;8.25;100.00
58534;BME280;44109;52.398;7.024;2023-04-15T07:46:46;100979.47;;;8.04;100.00
58534;BME280;44109;52.398;7.024;2023-04-15T07:49:14;100984.97;;;8.41;100.00
58534;BME280;44109;52.398;7.024;2023-04-15T07:51:44;100984.28;;;8.19;100.00
58534;BME280;44109;52.398;7.024;2023-04-15T07:54:12;100988.16;;;8.43;100.00
58534;BME280;44109;52.398;7.024;2023-04-15T07:56:41;100990.38;;;8.37;100.00
58534;BME280;44109;52.398;7.024;2023-04-15T07:59:08;100993.69;;;8.43;100.00
58534;BME280;44109;52.398;7.024;2023-04-15T08:01:36;101001.94;;;8.55;100.00
58534;BME280;44109;52.398;7.024;2023-04-15T08:04:04;100993.81;;;8.74;100.00
58534;BME280;44109;52.398;7.024;2023-04-15T08:06:31;100992.16;;;9.01;100.00
58534;BME280;44109;52.398;7.024;2023-04-15T08:08:59;101003.81;;;8.79;100.00
58534;BME280;44109;52.398;7.024;2023-04-15T08:11:27;101005.38;;;9.08;100.00
58534;BME280;44109;52.398;7.024;2023-04-15T08:13:56;101002.97;;;8.91;100.00
58534;BME280;44109;52.398;7.024;2023-04-15T08:16:25;101013.44;;;8.57;100.00
58534;BME280;44109;52.398;7.024;2023-04-15T08:18:54;101017.16;;;8.49;100.00
58534;BME280;44109;52.398;7.024;2023-04-15T08:21:23;101018.94;;;8.97;100.00
58534;BME280;44109;52.398;7.024;2023-04-15T08:23:52;101006.56;;;8.79;100.00
58534;BME280;44109;52.398;7.024;2023-04-15T08:26:20;101025.66;;;9.12;100.00
58534;BME280;44109;52.398;7.024;2023-04-15T08:28:48;101016.03;;;9.22;100.00
58534;BME280;44109;52.398;7.024;2023-04-15T08:31:17;101023.72;;;9.28;100.00
58534;BME280;44109;52.398;7.024;2023-04-15T08:33:45;101016.53;;;9.11;100.00
58534;BME280;44109;52.398;7.024;2023-04-15T08:36:13;101027.28;;;9.13;100.00
58534;BME280;44109;52.398;7.024;2023-04-15T08:38:41;101029.28;;;9.60;100.00
58534;BME280;44109;52.398;7.024;2023-04-15T08:41:14;101015.97;;;9.50;100.00
58534;BME280;44109;52.398;7.024;2023-04-15T08:43:51;101024.97;;;9.78;100.00
58534;BME280;44109;52.398;7.024;2023-04-15T08:46:22;101029.97;;;9.57;100.00
58534;BME280;44109;52.398;7.024;2023-04-15T08:48:50;101009.72;;;9.69;100.00
58534;BME280;44109;52.398;7.024;2023-04-15T08:51:19;101028.56;;;9.63;100.00
58534;BME280;44109;52.398;7.024;2023-04-15T08:53:48;101038.22;;;9.69;100.00
58534;BME280;44109;52.398;7.024;2023-04-15T08:56:17;101001.56;;;9.44;100.00
58534;BME280;44109;52.398;7.024;2023-04-15T08:58:49;101031.22;;;9.75;100.00
58534;BME280;44109;52.398;7.024;2023-04-15T09:01:17;101024.28;;;9.81;100.00
58534;BME280;44109;52.398;7.024;2023-04-15T09:03:47;101030.13;;;9.96;100.00
58534;BME280;44109;52.398;7.024;2023-04-15T09:06:16;101026.75;;;10.22;100.00
58534;BME280;44109;52.398;7.024;2023-04-15T09:08:44;101023.91;;;10.34;100.00
58534;BME280;44109;52.398;7.024;2023-04-15T09:11:12;101021.31;;;10.25;100.00
58534;BME280;44109;52.398;7.024;2023-04-15T09:13:40;101033.78;;;10.51;100.00
58534;BME280;44109;52.398;7.024;2023-04-15T09:16:07;101033.13;;;10.57;100.00
58534;BME280;44109;52.398;7.024;2023-04-15T09:18:37;101032.00;;;10.43;100.00
58534;BME280;44109;52.398;7.024;2023-04-15T09:21:08;101032.13;;;10.30;100.00
58534;BME280;44109;52.398;7.024;2023-04-15T09:23:50;101044.75;;;10.82;100.00
58534;BME280;44109;52.398;7.024;2023-04-15T09:26:30;101054.91;;;10.39;100.00
58534;BME280;44109;52.398;7.024;2023-04-15T09:29:03;101048.53;;;10.74;100.00
58534;BME280;44109;52.398;7.024;2023-04-15T09:31:32;101053.13;;;10.66;100.00
58534;BME280;44109;52.398;7.024;2023-04-15T09:34:00;101050.75;;;10.30;100.00
58534;BME280;44109;52.398;7.024;2023-04-15T09:36:37;101066.56;;;10.29;100.00
58534;BME280;44109;52.398;7.024;2023-04-15T09:39:18;101055.47;;;10.45;100.00
58534;BME280;44109;52.398;7.024;2023-04-15T09:41:46;101066.69;;;10.52;100.00
58534;BME280;44109;52.398;7.024;2023-04-15T09:44:21;101049.19;;;10.68;100.00
58534;BME280;44109;52.398;7.024;2023-04-15T09:46:49;101016.50;;;10.77;100.00
58534;BME280;44109;52.398;7.024;2023-04-15T09:49:17;101077.25;;;11.43;100.00
58534;BME280;44109;52.398;7.024;2023-04-15T09:51:47;101071.75;;;11.05;100.00
58534;BME280;44109;52.398;7.024;2023-04-15T09:54:18;101071.91;;;10.54;100.00
58534;BME280;44109;52.398;7.024;2023-04-15T09:56:46;101065.88;;;10.32;100.00
58534;BME280;44109;52.398;7.024;2023-04-15T09:59:14;101074.09;;;10.13;100.00
58534;BME280;44109;52.398;7.024;2023-04-15T10:01:42;101084.44;;;10.67;100.00
58534;BME280;44109;52.398;7.024;2023-04-15T10:04:11;101087.84;;;10.96;100.00
58534;BME280;44109;52.398;7.024;2023-04-15T10:06:39;101078.75;;;10.79;100.00
58534;BME280;44109;52.398;7.024;2023-04-15T10:09:08;101055.81;;;11.02;100.00
58534;BME280;44109;52.398;7.024;2023-04-15T10:11:36;101085.19;;;11.03;100.00
58534;BME280;44109;52.398;7.024;2023-04-15T10:14:05;101083.88;;;11.16;100.00
58534;BME280;44109;52.398;7.024;2023-04-15T10:16:35;101083.91;;;11.39;100.00
58534;BME280;44109;52.398;7.024;2023-04-15T10:19:08;101088.53;;;11.12;100.00
58534;BME280;44109;52.398;7.024;2023-04-15T10:21:37;101086.81;;;11.04;100.00
58534;BME280;44109;52.398;7.024;2023-04-15T10:24:06;101096.28;;;10.83;100.00
58534;BME280;44109;52.398;7.024;2023-04-15T10:26:36;101095.63;;;11.29;100.00
58534;BME280;44109;52.398;7.024;2023-04-15T10:29:04;101084.38;;;11.22;100.00
58534;BME280;44109;52.398;7.024;2023-04-15T10:31:33;101075.13;;;10.95;100.00
58534;BME280;44109;52.398;7.024;2023-04-15T10:34:03;101058.59;;;11.02;100.00
58534;BME280;44109;52.398;7.024;2023-04-15T10:36:32;101101.44;;;11.43;100.00
58534;BME280;44109;52.398;7.024;2023-04-15T10:39:00;101103.22;;;10.74;100.00
58534;BME280;44109;52.398;7.024;2023-04-15T10:41:29;101108.34;;;10.91;100.00
58534;BME280;44109;52.398;7.024;2023-04-15T10:44:01;101102.94;;;10.98;100.00
58534;BME280;44109;52.398;7.024;2023-04-15T10:46:35;101093.78;;;11.17;100.00
58534;BME280;44109;52.398;7.024;2023-04-15T10:49:07;101102.75;;;11.49;100.00
58534;BME280;44109;52.398;7.024;2023-04-15T10:51:38;101109.41;;;10.67;100.00
58534;BME280;44109;52.398;7.024;2023-04-15T10:54:11;101103.22;;;11.12;100.00
58534;BME280;44109;52.398;7.024;2023-04-15T10:56:42;101103.00;;;11.02;100.00
58534;BME280;44109;52.398;7.024;2023-04-15T10:59:11;101105.78;;;11.21;100.00
58534;BME280;44109;52.398;7.024;2023-04-15T11:01:52;101115.00;;;11.06;100.00
58534;BME280;44109;52.398;7.024;2023-04-15T11:04:53;101118.00;;;10.97;100.00
58534;BME280;44109;52.398;7.024;2023-04-15T11:07:35;101126.81;;;10.83;100.00
58534;BME280;44109;52.398;7.024;2023-04-15T11:13:25;101111.31;;;10.63;100.00
58534;BME280;44109;52.398;7.024;2023-04-15T11:15:58;101114.53;;;10.84;100.00
58534;BME280;44109;52.398;7.024;2023-04-15T11:18:31;101110.28;;;10.71;100.00
58534;BME280;44109;52.398;7.024;2023-04-15T11:21:01;101121.66;;;10.82;100.00
58534;BME280;44109;52.398;7.024;2023-04-15T11:23:33;101121.22;;;10.99;100.00
58534;BME280;44109;52.398;7.024;2023-04-15T11:26:03;101125.38;;;11.09;100.00
58534;BME280;44109;52.398;7.024;2023-04-15T11:28:36;101127.00;;;10.90;100.00
58534;BME280;44109;52.398;7.024;2023-04-15T11:31:09;101110.66;;;10.50;100.00
58534;BME280;44109;52.398;7.024;2023-04-15T11:33:45;101123.53;;;10.78;100.00
58534;BME280;44109;52.398;7.024;2023-04-15T11:36:13;101131.44;;;10.95;100.00
58534;BME280;44109;52.398;7.024;2023-04-15T11:38:42;101132.94;;;10.73;100.00
58534;BME280;44109;52.398;7.024;2023-04-15T11:41:11;101139.09;;;10.47;100.00
58534;BME280;44109;52.398;7.024;2023-04-15T11:43:40;101136.50;;;10.54;100.00
58534;BME280;44109;52.398;7.024;2023-04-15T11:46:08;101142.00;;;10.70;100.00
58534;BME280;44109;52.398;7.024;2023-04-15T11:48:40;101142.22;;;9.98;100.00
58534;BME280;44109;52.398;7.024;2023-04-15T11:51:10;101146.88;;;9.94;100.00
58534;BME280;44109;52.398;7.024;2023-04-15T11:53:41;101149.38;;;10.15;100.00
58534;BME280;44109;52.398;7.024;2023-04-15T11:56:16;101118.00;;;10.11;100.00
58534;BME280;44109;52.398;7.024;2023-04-15T11:58:48;101150.91;;;10.44;100.00
58534;BME280;44109;52.398;7.024;2023-04-15T12:01:18;101151.03;;;10.32;100.00
58534;BME280;44109;52.398;7.024;2023-04-15T12:03:47;101152.66;;;10.68;100.00
58534;BME280;44109;52.398;7.024;2023-04-15T12:06:16;101152.19;;;10.66;100.00
58534;BME280;44109;52.398;7.024;2023-04-15T12:09:03;101157.22;;;10.60;100.00
58534;BME280;44109;52.398;7.024;2023-04-15T12:11:43;101151.78;;;10.64;100.00
58534;BME280;44109;52.398;7.024;2023-04-15T12:14:18;101162.00;;;10.44;100.00
58534;BME280;44109;52.398;7.024;2023-04-15T12:16:49;101172.63;;;10.58;100.00
58534;BME280;44109;52.398;7.024;2023-04-15T12:19:22;101172.00;;;11.00;100.00
58534;BME280;44109;52.398;7.024;2023-04-15T12:21:56;101177.81;;;10.44;100.00
58534;BME280;44109;52.398;7.024;2023-04-15T12:24:25;101149.56;;;10.22;100.00
58534;BME280;44109;52.398;7.024;2023-04-15T12:26:54;101179.81;;;10.27;100.00
58534;BME280;44109;52.398;7.024;2023-04-15T12:29:26;101168.19;;;10.37;100.00
58534;BME280;44109;52.398;7.024;2023-04-15T12:31:56;101179.97;;;10.34;100.00
58534;BME280;44109;52.398;7.024;2023-04-15T12:34:27;101193.47;;;10.20;100.00
58534;BME280;44109;52.398;7.024;2023-04-15T12:36:56;101188.38;;;10.22;100.00
58534;BME280;44109;52.398;7.024;2023-04-15T12:39:27;101200.63;;;10.21;100.00
58534;BME280;44109;52.398;7.024;2023-04-15T12:41:56;101197.84;;;10.21;100.00
58534;BME280;44109;52.398;7.024;2023-04-15T12:44:25;101207.22;;;10.16;100.00
58534;BME280;44109;52.398;7.024;2023-04-15T12:46:54;101212.94;;;10.08;100.00
58534;BME280;44109;52.398;7.024;2023-04-15T12:49:23;101219.06;;;10.29;100.00
58534;BME280;44109;52.398;7.024;2023-04-15T12:51:52;101226.84;;;10.39;100.00
58534;BME280;44109;52.398;7.024;2023-04-15T12:54:31;101222.47;;;10.54;100.00
58534;BME280;44109;52.398;7.024;2023-04-15T12:56:59;101224.34;;;10.19;100.00
58534;BME280;44109;52.398;7.024;2023-04-15T12:59:29;101220.75;;;10.18;100.00
58534;BME280;44109;52.398;7.024;2023-04-15T13:01:57;101221.84;;;10.29;100.00